< Typhoon 195611 1956 Season Typhoon 195613 >
Typhoon 195612 (EMMA)
General InformationTrack Information on Google Maps || NewsDisaster Info.ResourceGoogle EarthGE AnimationAtom FeedGeoJSON
Detalied Best Track (Time Zone = UTC)
Year Month Day Hour Lat. Long. Pressure (hPa) Wind (kt) Class Image Chart
1956 9 1 00 23.5 140.0 1006 0 2 -- Chart
1956 9 1 06 24.0 140.5 1004 0 2 -- Chart
1956 9 1 12 24.5 141.0 1004 0 2 -- Chart
1956 9 1 18 25.2 141.8 1004 0 2 -- Chart
1956 9 2 00 25.9 142.5 1004 0 2 -- Chart
1956 9 2 06 25.6 142.5 1002 0 2 -- Chart
1956 9 2 12 24.7 142.3 1002 0 2 -- Chart
1956 9 2 18 24.4 141.8 1000 0 2 -- Chart
1956 9 3 00 23.8 141.5 996 0 9 -- Chart
1956 9 3 06 23.1 141.2 995 0 9 -- Chart
1956 9 3 12 22.6 140.9 993 0 9 -- Chart
1956 9 3 18 22.0 140.4 993 0 9 -- Chart
1956 9 4 00 21.5 139.1 985 0 9 -- Chart
1956 9 4 06 21.0 137.6 980 0 9 -- Chart
1956 9 4 12 20.0 136.5 975 0 9 -- Chart
1956 9 4 18 19.4 135.4 975 0 9 -- Chart
1956 9 5 00 19.2 134.5 970 0 9 -- Chart
1956 9 5 06 19.1 134.0 960 0 9 -- Chart
1956 9 5 12 19.1 133.5 950 0 9 -- Chart
1956 9 5 18 19.2 133.0 950 0 9 -- Chart
1956 9 6 00 19.6 133.0 950 0 9 -- Chart
1956 9 6 06 20.1 132.6 950 0 9 -- Chart
1956 9 6 12 21.0 132.2 940 0 9 -- Chart
1956 9 6 18 21.7 131.7 940 0 9 -- Chart
1956 9 7 00 22.7 131.2 940 0 9 -- Chart
1956 9 7 06 24.0 130.2 940 0 9 -- Chart
1956 9 7 12 25.0 129.0 940 0 9 -- Chart
1956 9 7 18 25.8 128.0 940 0 9 -- Chart
1956 9 8 00 26.3 127.4 935 0 9 -- Chart
1956 9 8 06 26.6 127.0 930 0 9 -- Chart
1956 9 8 12 27.2 127.0 930 0 9 -- Chart
1956 9 8 18 28.3 126.9 930 0 9 -- Chart
1956 9 9 00 29.5 127.3 935 0 9 -- Chart
1956 9 9 06 30.7 127.3 940 0 9 -- Chart
1956 9 9 12 32.0 127.7 940 0 9 -- Chart
1956 9 9 18 33.5 128.6 950 0 9 -- Chart
1956 9 10 00 36.3 130.6 950 0 9 -- Chart
1956 9 10 06 39.6 132.6 960 0 9 -- Chart
1956 9 10 12 43.0 134.9 965 0 9 -- Chart
1956 9 10 18 45.7 137.7 975 0 9 -- Chart
1956 9 11 00 46.7 139.0 986 0 9 -- Chart
Japan Meteorological Agency Best Track Data | Correction Date : 2013-03-19
< Typhoon 195611 1956 Season Typhoon 195613 >

Help